Time;durP1;ratioP1;P1;durP2;ratioP2;P2;SDS_P1;SDS_P2;PMS_P1;PMS_P2;Temp;Humidity;BMP_temperature;BMP_pressure;BME280_temperature;BME280_humidity;BME280_pressure;Samples;Min_cycle;Max_cycle;Signal;HPM_P1;HPM_P2
2023/07/06 00:01:48;;;;;;;;;21.25;21.00;23.60;63.60;;;;;;111626;1239;44598;-64
2023/07/06 00:04:15;;;;;;;;;21.75;21.00;23.50;63.70;;;;;;111911;1238;49419;-64
2023/07/06 00:06:42;;;;;;;;;20.00;19.50;23.50;63.70;;;;;;111868;1237;49654;-66
2023/07/06 00:09:09;;;;;;;;;23.00;20.33;23.50;64.00;;;;;;111521;1238;53283;-64
2023/07/06 00:11:38;;;;;;;;;20.00;19.00;23.50;63.90;;;;;;111478;1238;45672;-66
2023/07/06 00:14:07;;;;;;;;;18.75;17.75;23.50;63.70;;;;;;111687;1238;48882;-65
2023/07/06 00:16:34;;;;;;;;;20.00;19.00;23.50;63.80;;;;;;111598;1239;48989;-67
2023/07/06 00:19:01;;;;;;;;;20.00;19.00;23.40;63.80;;;;;;111731;1238;53943;-66
2023/07/06 00:21:30;;;;;;;;;20.25;18.25;23.40;63.80;;;;;;111583;1241;44707;-69
2023/07/06 00:23:57;;;;;;;;;22.00;20.33;23.40;63.80;;;;;;111581;1244;49289;-65
2023/07/06 00:26:24;;;;;;;;;20.00;17.75;23.40;63.80;;;;;;111890;1243;53174;-65
2023/07/06 00:28:53;;;;;;;;;19.25;18.50;23.30;63.80;;;;;;111806;1238;53217;-64
2023/07/06 00:31:31;;;;;;;;;20.50;18.25;23.30;64.20;;;;;;111616;1238;44600;-63
2023/07/06 00:34:03;;;;;;;;;19.00;18.75;23.30;63.90;;;;;;111671;1238;49445;-64
2023/07/06 00:36:31;;;;;;;;;22.00;20.75;23.30;63.90;;;;;;112024;1241;49650;-63
2023/07/06 00:39:02;;;;;;;;;19.67;18.00;23.20;63.60;;;;;;111588;1241;54120;-63
2023/07/06 00:41:30;;;;;;;;;24.00;22.50;23.20;63.60;;;;;;111641;1237;44459;-63
2023/07/06 00:43:58;;;;;;;;;20.75;19.75;23.20;63.70;;;;;;111642;1241;50195;-64
2023/07/06 00:46:29;;;;;;;;;21.67;21.00;23.10;63.70;;;;;;112106;1238;49884;-63
2023/07/06 00:48:57;;;;;;;;;22.67;22.00;23.10;64.00;;;;;;111798;1241;54814;-63
2023/07/06 00:51:27;;;;;;;;;21.67;20.33;23.10;64.10;;;;;;111433;1238;44342;-64
2023/07/06 00:54:01;;;;;;;;;25.67;24.00;23.00;64.20;;;;;;111680;1238;49162;-63
2023/07/06 00:56:31;;;;;;;;;21.75;21.25;23.00;64.30;;;;;;112000;1238;50733;-63
2023/07/06 00:59:03;;;;;;;;;24.00;22.75;22.90;64.50;;;;;;111766;1239;54041;-63
2023/07/06 01:01:37;;;;;;;;;27.50;23.50;22.90;64.70;;;;;;111384;1240;44769;-63
2023/07/06 01:04:08;;;;;;;;;26.75;23.00;22.90;64.70;;;;;;111665;1241;49895;-63
2023/07/06 01:06:39;;;;;;;;;23.00;22.50;22.90;64.80;;;;;;111542;1241;49209;-63
2023/07/06 01:09:07;;;;;;;;;26.00;24.00;22.80;65.00;;;;;;111660;1237;54543;-62
2023/07/06 01:11:35;;;;;;;;;29.00;27.25;22.80;65.10;;;;;;111694;1241;44525;-64
2023/07/06 01:14:03;;;;;;;;;26.00;24.50;22.80;65.30;;;;;;111281;1241;49615;-63
2023/07/06 01:16:37;;;;;;;;;26.25;24.00;22.70;65.40;;;;;;112056;1238;50133;-65
2023/07/06 01:19:41;;;;;;;;;24.00;22.50;22.70;65.50;;;;;;111791;1238;54585;-63
2023/07/06 01:22:40;;;;;;;;;27.50;27.00;22.70;65.60;;;;;;111832;1239;44185;-63
2023/07/06 01:25:31;;;;;;;;;26.25;25.50;22.70;65.70;;;;;;111786;1243;49077;-64
2023/07/06 01:28:05;;;;;;;;;23.00;21.33;22.60;65.80;;;;;;111778;1241;49931;-64
2023/07/06 01:31:02;;;;;;;;;33.00;29.75;22.60;65.90;;;;;;111659;1238;53420;-64
2023/07/06 01:33:40;;;;;;;;;30.25;28.25;22.60;66.10;;;;;;111550;1243;44611;-64
2023/07/06 01:36:34;;;;;;;;;29.50;25.75;22.60;66.60;;;;;;112104;1236;48801;-63
2023/07/06 01:39:12;;;;;;;;;28.33;26.33;22.60;66.60;;;;;;111600;1239;49096;-63
2023/07/06 01:41:40;;;;;;;;;29.00;28.00;22.60;66.30;;;;;;111805;1241;54117;-63
2023/07/06 01:44:10;;;;;;;;;26.25;25.00;22.60;66.40;;;;;;111823;1238;44246;-63
2023/07/06 01:46:38;;;;;;;;;27.00;25.75;22.50;66.40;;;;;;111983;1238;49222;-64
2023/07/06 01:49:06;;;;;;;;;29.00;27.00;22.50;66.50;;;;;;111839;1238;48956;-66
2023/07/06 01:52:18;;;;;;;;;27.00;26.00;22.60;66.30;;;;;;111772;1239;55068;-63
2023/07/06 01:54:54;;;;;;;;;24.50;23.25;22.50;66.00;;;;;;111789;1237;44422;-65
2023/07/06 01:57:28;;;;;;;;;25.25;24.75;22.50;65.90;;;;;;111777;1241;48925;-64
2023/07/06 01:59:56;;;;;;;;;25.00;24.67;22.50;65.70;;;;;;111733;1242;48873;-64
2023/07/06 02:02:24;;;;;;;;;25.00;22.67;22.50;65.70;;;;;;111602;1238;54180;-63
2023/07/06 02:04:52;;;;;;;;;25.50;23.50;22.50;65.70;;;;;;112105;1238;45737;-63
2023/07/06 02:07:20;;;;;;;;;22.00;20.33;22.50;65.60;;;;;;111527;1243;49653;-63
2023/07/06 02:09:48;;;;;;;;;25.25;24.50;22.50;65.40;;;;;;111414;1241;49354;-64
2023/07/06 02:12:15;;;;;;;;;29.25;27.75;22.50;65.50;;;;;;111513;1238;53361;-63
2023/07/06 02:14:42;;;;;;;;;29.75;29.25;22.40;65.50;;;;;;112010;1241;44215;-64
2023/07/06 02:17:10;;;;;;;;;29.00;25.25;22.40;65.80;;;;;;111783;1241;50064;-63
2023/07/06 02:19:38;;;;;;;;;29.75;27.75;22.30;65.70;;;;;;111637;1237;50157;-62
2023/07/06 02:22:05;;;;;;;;;29.00;27.00;22.30;65.80;;;;;;111687;1237;54099;-63
2023/07/06 02:24:32;;;;;;;;;27.00;25.75;22.30;65.90;;;;;;111485;1238;44153;-63
2023/07/06 02:26:59;;;;;;;;;30.25;27.25;22.20;66.10;;;;;;111693;1237;49832;-64
2023/07/06 02:29:26;;;;;;;;;29.33;28.33;22.20;66.30;;;;;;111674;1238;49933;-64
2023/07/06 02:31:53;;;;;;;;;26.00;25.25;22.20;65.90;;;;;;111711;1244;55296;-63
2023/07/06 02:34:26;;;;;;;;;25.25;24.25;22.10;65.70;;;;;;111924;1238;44725;-63
2023/07/06 02:36:55;;;;;;;;;21.75;20.50;22.10;65.80;;;;;;111791;1237;49805;-64
2023/07/06 02:39:24;;;;;;;;;21.33;20.00;22.10;65.70;;;;;;111782;1238;50425;-72
2023/07/06 02:41:56;;;;;;;;;23.33;23.00;22.00;65.70;;;;;;111558;1240;55000;-65
2023/07/06 02:44:24;;;;;;;;;25.00;23.75;22.00;65.70;;;;;;112084;1237;44146;-63
2023/07/06 02:46:51;;;;;;;;;22.00;21.67;22.00;65.70;;;;;;111820;1241;49819;-65
2023/07/06 02:49:18;;;;;;;;;23.75;22.25;22.00;65.70;;;;;;111792;1238;49312;-64
2023/07/06 02:51:46;;;;;;;;;23.00;22.00;21.90;65.70;;;;;;111758;1241;53916;-68
2023/07/06 02:54:17;;;;;;;;;23.25;22.00;22.00;65.80;;;;;;111950;1236;45263;-63
2023/07/06 02:56:44;;;;;;;;;23.50;21.50;21.90;65.80;;;;;;111758;1237;51233;-66
2023/07/06 02:59:13;;;;;;;;;23.75;22.50;21.90;65.80;;;;;;111787;1241;50452;-64
2023/07/06 03:01:40;;;;;;;;;26.50;24.25;21.90;65.80;;;;;;111747;1238;54084;-65
2023/07/06 03:04:10;;;;;;;;;23.25;21.50;21.90;65.80;;;;;;111710;1243;44712;-63
2023/07/06 03:06:38;;;;;;;;;25.00;22.75;21.90;65.90;;;;;;111896;1238;49896;-63
2023/07/06 03:09:07;;;;;;;;;24.25;22.75;21.90;65.90;;;;;;111738;1241;49708;-63
2023/07/06 03:11:35;;;;;;;;;25.75;24.50;21.90;66.00;;;;;;111798;1238;53900;-65
2023/07/06 03:14:03;;;;;;;;;23.00;22.00;21.80;65.90;;;;;;111819;1239;44351;-64
2023/07/06 03:16:39;;;;;;;;;24.75;22.25;21.80;66.10;;;;;;111541;1237;50217;-66
2023/07/06 03:19:08;;;;;;;;;23.50;23.00;21.80;66.20;;;;;;111622;1238;50089;-64
2023/07/06 03:21:35;;;;;;;;;24.25;23.00;21.80;66.30;;;;;;111748;1241;53814;-65
2023/07/06 03:24:02;;;;;;;;;23.00;21.50;21.70;66.20;;;;;;111791;1238;44851;-64
2023/07/06 03:26:29;;;;;;;;;25.67;23.67;21.70;66.40;;;;;;111457;1238;49073;-67
2023/07/06 03:28:56;;;;;;;;;24.67;22.00;21.70;66.10;;;;;;111784;1241;49214;-67
2023/07/06 03:31:23;;;;;;;;;25.50;24.50;21.70;66.70;;;;;;111750;1238;53832;-65
2023/07/06 03:33:50;;;;;;;;;23.33;23.00;21.60;67.00;;;;;;111698;1241;44434;-65
2023/07/06 03:36:17;;;;;;;;;26.00;22.00;21.50;66.70;;;;;;111927;1241;49824;-65
2023/07/06 03:38:44;;;;;;;;;25.50;23.75;21.50;66.80;;;;;;111760;1241;50143;-68
2023/07/06 03:41:12;;;;;;;;;24.25;21.25;21.60;66.80;;;;;;111804;1237;54548;-64
2023/07/06 03:43:39;;;;;;;;;25.25;24.25;21.60;66.60;;;;;;111722;1241;44174;-65
2023/07/06 03:46:07;;;;;;;;;23.50;21.00;21.60;66.60;;;;;;111897;1238;48987;-66
2023/07/06 03:48:34;;;;;;;;;24.00;22.00;21.60;66.70;;;;;;111554;1238;48969;-64
2023/07/06 03:51:04;;;;;;;;;23.00;22.00;21.60;66.40;;;;;;111624;1241;53645;-63
2023/07/06 03:53:31;;;;;;;;;20.00;19.25;21.70;66.40;;;;;;111469;1236;44768;-64
2023/07/06 03:55:59;;;;;;;;;22.25;21.75;21.80;66.20;;;;;;111473;1241;50108;-65
2023/07/06 03:58:26;;;;;;;;;21.00;20.75;21.80;65.80;;;;;;111654;1241;49742;-66
2023/07/06 04:00:56;;;;;;;;;22.50;20.00;21.90;65.50;;;;;;111591;1241;53938;-63
2023/07/06 04:03:23;;;;;;;;;21.50;21.00;22.00;65.30;;;;;;111470;1238;45690;-63
2023/07/06 04:05:50;;;;;;;;;20.00;19.00;22.10;65.20;;;;;;111594;1238;49002;-63
2023/07/06 04:08:20;;;;;;;;;22.75;21.25;22.20;65.30;;;;;;111618;1241;49784;-63
2023/07/06 04:10:48;;;;;;;;;20.00;19.00;22.20;64.90;;;;;;111725;1242;54416;-63
2023/07/06 04:13:15;;;;;;;;;21.00;20.50;22.30;64.70;;;;;;111681;1241;44275;-63
2023/07/06 04:15:45;;;;;;;;;19.00;17.00;22.30;64.70;;;;;;111370;1238;49373;-62
2023/07/06 04:18:15;;;;;;;;;21.00;18.00;22.40;64.80;;;;;;111522;1242;49256;-66
2023/07/06 04:20:42;;;;;;;;;19.00;19.00;22.40;64.30;;;;;;111783;1238;53667;-63
2023/07/06 04:23:09;;;;;;;;;23.00;21.33;22.50;64.70;;;;;;111727;1241;44983;-63
2023/07/06 04:25:37;;;;;;;;;19.00;17.50;22.60;64.20;;;;;;111613;1238;49105;-65
2023/07/06 04:28:06;;;;;;;;;20.50;19.50;22.60;64.20;;;;;;111687;1241;50147;-67
2023/07/06 04:30:35;;;;;;;;;18.75;17.25;22.70;64.10;;;;;;111569;1241;54374;-61
2023/07/06 04:33:04;;;;;;;;;23.75;20.75;22.70;64.70;;;;;;111692;1238;44442;-64
2023/07/06 04:35:31;;;;;;;;;19.50;19.00;22.80;65.00;;;;;;111657;1241;50425;-65
2023/07/06 04:38:03;;;;;;;;;23.00;21.25;22.80;65.20;;;;;;111656;1236;50102;-67
2023/07/06 04:40:30;;;;;;;;;19.75;18.75;22.90;65.30;;;;;;111561;1243;54604;-62
2023/07/06 04:42:57;;;;;;;;;22.00;21.00;22.90;65.10;;;;;;111501;1238;44827;-66
2023/07/06 04:45:26;;;;;;;;;20.00;19.00;23.00;65.10;;;;;;111889;1237;48831;-76
2023/07/06 04:47:54;;;;;;;;;19.50;19.00;23.10;65.30;;;;;;111440;1238;50356;-65
2023/07/06 04:50:24;;;;;;;;;22.75;22.00;23.10;65.70;;;;;;111649;1241;54653;-70
2023/07/06 04:53:01;;;;;;;;;26.25;22.75;23.20;65.70;;;;;;111679;1238;44358;-65
2023/07/06 04:55:30;;;;;;;;;26.75;24.75;23.30;65.50;;;;;;112061;1241;48904;-64
2023/07/06 04:57:59;;;;;;;;;24.00;22.00;23.40;65.40;;;;;;111791;1243;50092;-65
2023/07/06 05:00:29;;;;;;;;;24.75;24.00;23.50;64.80;;;;;;111762;1238;54777;-65
2023/07/06 05:02:59;;;;;;;;;28.00;26.00;23.50;64.60;;;;;;111779;1238;44425;-66
2023/07/06 05:05:31;;;;;;;;;30.50;26.00;23.60;65.60;;;;;;111964;1238;49511;-66
2023/07/06 05:07:59;;;;;;;;;28.00;25.00;23.70;66.00;;;;;;111485;1241;50165;-65
2023/07/06 05:10:26;;;;;;;;;31.25;26.75;23.90;66.00;;;;;;111598;1241;53935;-63
2023/07/06 05:12:55;;;;;;;;;29.75;25.00;23.90;65.90;;;;;;111812;1238;44719;-64
2023/07/06 05:15:23;;;;;;;;;27.00;25.00;24.00;65.80;;;;;;112103;1238;49445;-63
2023/07/06 05:17:50;;;;;;;;;25.67;24.00;24.10;65.70;;;;;;111434;1243;50026;-62
2023/07/06 05:20:18;;;;;;;;;34.00;30.00;24.20;65.30;;;;;;111792;1238;53526;-63
2023/07/06 05:22:48;;;;;;;;;34.50;30.50;24.20;65.10;;;;;;111647;1238;44216;-62
2023/07/06 05:25:19;;;;;;;;;36.75;30.25;24.30;65.00;;;;;;111353;1238;49183;-61
2023/07/06 05:27:46;;;;;;;;;36.50;30.75;24.30;65.00;;;;;;111781;1238;49697;-63
2023/07/06 05:30:14;;;;;;;;;40.67;32.67;24.40;64.70;;;;;;111715;1238;53326;-62
2023/07/06 05:32:41;;;;;;;;;39.00;34.00;24.40;64.80;;;;;;111311;1238;44870;-62
2023/07/06 05:35:09;;;;;;;;;43.67;34.67;24.50;64.50;;;;;;111055;1241;1230251;-63
2023/07/06 05:37:36;;;;;;;;;41.25;34.00;24.50;64.40;;;;;;111800;1241;49338;-65
2023/07/06 05:40:06;;;;;;;;;35.33;32.00;24.60;64.40;;;;;;111642;1238;53631;-63
2023/07/06 05:42:33;;;;;;;;;39.50;32.25;24.60;64.30;;;;;;111699;1241;44649;-62
2023/07/06 05:45:00;;;;;;;;;36.25;31.00;24.70;64.00;;;;;;111937;1241;48840;-63
2023/07/06 05:47:28;;;;;;;;;42.00;33.25;24.70;64.10;;;;;;111445;1238;49472;-62
2023/07/06 05:49:55;;;;;;;;;41.33;35.00;24.80;63.80;;;;;;111572;1237;54051;-63
2023/07/06 05:52:22;;;;;;;;;35.33;31.00;24.80;63.70;;;;;;111832;1238;45113;-63
2023/07/06 05:54:49;;;;;;;;;34.75;30.50;24.80;63.70;;;;;;112087;1241;49441;-62
2023/07/06 05:57:19;;;;;;;;;38.67;32.00;24.90;63.50;;;;;;111794;1241;49267;-62
2023/07/06 05:59:48;;;;;;;;;37.00;31.75;24.90;63.40;;;;;;111738;1241;54241;-62
2023/07/06 06:02:20;;;;;;;;;38.67;32.67;25.00;63.30;;;;;;111734;1238;45355;-63
2023/07/06 06:04:51;;;;;;;;;37.50;30.75;25.00;63.20;;;;;;111989;1238;49669;-63
2023/07/06 06:07:19;;;;;;;;;34.75;30.00;25.00;63.10;;;;;;111690;1241;49363;-63
2023/07/06 06:09:50;;;;;;;;;35.00;31.50;25.10;63.20;;;;;;111276;1243;53307;-63
2023/07/06 06:12:20;;;;;;;;;37.75;31.75;25.10;62.90;;;;;;111690;1238;45006;-62
2023/07/06 06:14:49;;;;;;;;;34.50;30.00;25.20;62.80;;;;;;112077;1241;48823;-63
2023/07/06 06:17:18;;;;;;;;;35.00;31.50;25.20;62.70;;;;;;111390;1241;49036;-62
2023/07/06 06:19:45;;;;;;;;;29.50;26.50;25.20;62.70;;;;;;111706;1238;53861;-63
2023/07/06 06:22:15;;;;;;;;;35.50;30.00;25.20;62.50;;;;;;111718;1241;44361;-64
2023/07/06 06:24:43;;;;;;;;;34.50;29.25;25.30;62.40;;;;;;111694;1237;49541;-63
2023/07/06 06:27:12;;;;;;;;;30.00;29.00;25.30;62.40;;;;;;111787;1236;49127;-63
2023/07/06 06:29:42;;;;;;;;;36.50;31.00;25.40;62.40;;;;;;111749;1237;53273;-63
2023/07/06 06:32:10;;;;;;;;;31.00;27.25;25.40;62.40;;;;;;111793;1241;44013;-64
2023/07/06 06:34:38;;;;;;;;;34.50;30.00;25.40;62.80;;;;;;112098;1237;49499;-63
2023/07/06 06:37:06;;;;;;;;;32.33;28.67;25.50;62.70;;;;;;111353;1243;49462;-62
2023/07/06 06:39:34;;;;;;;;;36.00;29.67;25.50;63.10;;;;;;111780;1238;54466;-62
2023/07/06 06:42:02;;;;;;;;;33.00;28.75;25.50;62.80;;;;;;111629;1238;44542;-65
2023/07/06 06:44:30;;;;;;;;;33.00;26.50;25.60;62.80;;;;;;111935;1239;50438;-63
2023/07/06 06:47:00;;;;;;;;;33.50;28.75;25.60;62.90;;;;;;111812;1241;50829;-65
2023/07/06 06:49:28;;;;;;;;;31.25;29.00;25.70;63.20;;;;;;111656;1238;54375;-64
2023/07/06 06:51:55;;;;;;;;;32.50;28.25;25.70;62.90;;;;;;111783;1241;44418;-65
2023/07/06 06:54:22;;;;;;;;;28.25;27.00;25.80;62.80;;;;;;112018;1238;48785;-64
2023/07/06 06:56:49;;;;;;;;;27.00;25.00;25.90;62.80;;;;;;111944;1241;49367;-67
2023/07/06 06:59:16;;;;;;;;;30.25;25.25;25.90;62.20;;;;;;111839;1238;53638;-68
2023/07/06 07:01:43;;;;;;;;;26.50;24.75;25.90;62.50;;;;;;111892;1238;44676;-68
2023/07/06 07:04:10;;;;;;;;;29.50;26.25;25.90;61.60;;;;;;111808;1237;49585;-68
2023/07/06 07:06:38;;;;;;;;;31.67;27.00;26.00;64.20;;;;;;111521;1243;49410;-65
2023/07/06 07:09:09;;;;;;;;;29.00;26.25;26.10;62.90;;;;;;111752;1237;54132;-66
2023/07/06 07:11:36;;;;;;;;;30.00;22.67;26.20;62.10;;;;;;111723;1238;44651;-66
2023/07/06 07:14:06;;;;;;;;;26.00;23.25;26.20;61.80;;;;;;111802;1241;49874;-67
2023/07/06 07:16:34;;;;;;;;;24.50;22.50;26.20;62.00;;;;;;111943;1239;49825;-67
2023/07/06 07:19:04;;;;;;;;;27.33;25.00;26.30;61.80;;;;;;111784;1237;54167;-65
2023/07/06 07:21:31;;;;;;;;;24.25;23.50;26.30;61.60;;;;;;111741;1237;45097;-66
2023/07/06 07:23:58;;;;;;;;;29.00;28.00;26.30;62.00;;;;;;111876;1238;50248;-65
2023/07/06 07:26:26;;;;;;;;;24.25;22.25;26.40;61.40;;;;;;111641;1241;49544;-68
2023/07/06 07:28:53;;;;;;;;;24.75;23.50;26.40;61.40;;;;;;111690;1241;54029;-68
2023/07/06 07:31:22;;;;;;;;;24.50;23.00;26.40;61.20;;;;;;111839;1241;44930;-66
2023/07/06 07:33:49;;;;;;;;;25.00;24.00;26.50;61.20;;;;;;111714;1238;49338;-68
2023/07/06 07:36:18;;;;;;;;;24.50;22.50;26.50;61.30;;;;;;111801;1241;49265;-68
2023/07/06 07:38:47;;;;;;;;;24.00;23.00;26.50;61.20;;;;;;111805;1237;53924;-65
2023/07/06 07:41:18;;;;;;;;;24.25;20.75;26.60;60.90;;;;;;111702;1241;44523;-64
2023/07/06 07:43:48;;;;;;;;;25.75;22.50;26.60;60.60;;;;;;111575;1238;49056;-67
2023/07/06 07:46:17;;;;;;;;;24.50;22.00;26.70;60.80;;;;;;111531;1239;50100;-69
2023/07/06 07:48:46;;;;;;;;;24.00;23.00;26.70;61.20;;;;;;111844;1238;53262;-65
2023/07/06 07:51:16;;;;;;;;;24.25;21.25;26.80;60.60;;;;;;111727;1237;44670;-67
2023/07/06 07:53:44;;;;;;;;;28.00;23.33;26.80;60.60;;;;;;111845;1238;49039;-65
2023/07/06 07:56:15;;;;;;;;;25.00;22.25;26.80;60.40;;;;;;111729;1241;49493;-65
2023/07/06 07:58:45;;;;;;;;;26.33;23.00;26.80;60.50;;;;;;111892;1241;53611;-65
2023/07/06 08:01:13;;;;;;;;;24.00;22.25;26.90;60.60;;;;;;111791;1238;44783;-66
2023/07/06 08:03:41;;;;;;;;;22.00;21.33;26.90;60.20;;;;;;111778;1241;49276;-66
2023/07/06 08:06:10;;;;;;;;;24.75;23.00;26.90;60.20;;;;;;111582;1241;49200;-66
2023/07/06 08:08:38;;;;;;;;;20.75;19.50;27.00;60.20;;;;;;111749;1238;53923;-65
2023/07/06 08:11:08;;;;;;;;;22.00;20.75;27.10;60.10;;;;;;111679;1238;45218;-64
2023/07/06 08:13:36;;;;;;;;;27.75;24.50;27.10;60.00;;;;;;111780;1238;50100;-67
2023/07/06 08:16:04;;;;;;;;;23.00;22.00;27.10;59.80;;;;;;111615;1241;49606;-66
2023/07/06 08:18:32;;;;;;;;;23.67;21.00;27.20;59.90;;;;;;111451;1238;53641;-64
2023/07/06 08:21:00;;;;;;;;;21.33;21.00;27.20;59.70;;;;;;111619;1241;44874;-65
2023/07/06 08:23:28;;;;;;;;;23.50;20.50;27.30;59.70;;;;;;111609;1241;49198;-64
2023/07/06 08:25:56;;;;;;;;;23.00;21.00;27.30;59.60;;;;;;111583;1238;50330;-63
2023/07/06 08:28:34;;;;;;;;;24.75;21.25;27.30;59.50;;;;;;111656;1237;53979;-65
2023/07/06 08:31:03;;;;;;;;;21.75;18.75;27.30;59.50;;;;;;111757;1242;45204;-64
2023/07/06 08:33:35;;;;;;;;;21.00;20.00;27.40;59.50;;;;;;111418;1242;48934;-66
2023/07/06 08:36:04;;;;;;;;;20.25;18.00;27.40;59.30;;;;;;111841;1241;50045;-65
2023/07/06 08:38:32;;;;;;;;;24.75;22.50;27.40;59.20;;;;;;111646;1238;53914;-68
2023/07/06 08:41:03;;;;;;;;;23.50;20.25;27.40;59.20;;;;;;111960;1238;44420;-70
2023/07/06 08:43:31;;;;;;;;;23.50;21.00;27.40;59.20;;;;;;111993;1241;49191;-69
2023/07/06 08:46:03;;;;;;;;;24.25;22.25;27.40;59.20;;;;;;112148;1241;48991;-65
2023/07/06 08:48:36;;;;;;;;;25.75;22.25;27.40;59.20;;;;;;111810;1240;53785;-65
2023/07/06 08:51:22;;;;;;;;;19.00;17.67;27.50;59.20;;;;;;111565;1241;44747;-63
2023/07/06 08:53:54;;;;;;;;;23.00;20.00;27.50;58.90;;;;;;111764;1242;50349;-64
2023/07/06 08:56:25;;;;;;;;;18.75;17.25;27.50;59.00;;;;;;111450;1244;50361;-63
2023/07/06 08:58:54;;;;;;;;;20.00;19.00;27.60;59.10;;;;;;111404;1242;53485;-64
2023/07/06 09:01:23;;;;;;;;;21.75;20.75;27.60;58.90;;;;;;111741;1239;45241;-66
2023/07/06 09:03:59;;;;;;;;;19.75;18.00;27.70;59.00;;;;;;111674;1241;49582;-65
2023/07/06 09:06:28;;;;;;;;;23.25;18.75;27.70;59.10;;;;;;111710;1239;49805;-65
2023/07/06 09:09:03;;;;;;;;;21.00;18.50;27.70;58.80;;;;;;111694;1241;54374;-64
2023/07/06 09:11:31;;;;;;;;;19.50;18.25;27.70;58.70;;;;;;111369;1238;44698;-65
2023/07/06 09:14:03;;;;;;;;;19.00;17.25;27.80;58.80;;;;;;111764;1238;48988;-64
2023/07/06 09:16:39;;;;;;;;;22.75;21.25;27.80;58.80;;;;;;111881;1242;49463;-64
2023/07/06 09:19:10;;;;;;;;;19.67;18.67;27.80;58.70;;;;;;111700;1239;54304;-65
2023/07/06 09:21:37;;;;;;;;;20.67;19.67;27.80;58.50;;;;;;111485;1241;44207;-66
2023/07/06 09:24:05;;;;;;;;;21.00;19.00;27.80;58.60;;;;;;111694;1245;50317;-66
2023/07/06 09:26:35;;;;;;;;;22.75;21.50;27.80;58.60;;;;;;111974;1238;48896;-68
2023/07/06 09:29:15;;;;;;;;;18.00;17.00;27.90;58.60;;;;;;111728;1241;54370;-66
2023/07/06 09:31:43;;;;;;;;;20.00;18.00;27.90;58.70;;;;;;111548;1241;45081;-64
2023/07/06 09:34:44;;;;;;;;;20.00;18.25;27.90;58.50;;;;;;111661;1241;49794;-64
2023/07/06 09:37:17;;;;;;;;;20.33;18.00;27.90;58.50;;;;;;111382;1241;49325;-67
2023/07/06 09:40:06;;;;;;;;;22.00;18.75;28.00;58.50;;;;;;111703;1238;54573;-68
2023/07/06 09:42:34;;;;;;;;;18.00;16.50;28.00;58.40;;;;;;111295;1239;44096;-63
2023/07/06 09:45:02;;;;;;;;;21.00;20.00;28.10;58.50;;;;;;111733;1241;49291;-64
2023/07/06 09:47:30;;;;;;;;;30.00;27.00;28.10;58.20;;;;;;111713;1238;49622;-63
2023/07/06 09:50:04;;;;;;;;;28.00;26.25;28.20;58.30;;;;;;111326;1241;53798;-62
2023/07/06 09:52:33;;;;;;;;;26.33;24.00;28.20;58.10;;;;;;111397;1244;44684;-63
2023/07/06 09:55:24;;;;;;;;;26.00;23.00;28.20;58.10;;;;;;111363;1239;49010;-63
2023/07/06 09:57:51;;;;;;;;;23.50;20.75;28.30;57.90;;;;;;111573;1237;49810;-63
2023/07/06 10:00:22;;;;;;;;;22.25;19.50;28.30;57.80;;;;;;111682;1241;54622;-63
2023/07/06 10:03:23;;;;;;;;;24.00;22.25;28.30;57.70;;;;;;111676;1238;44829;-62
2023/07/06 10:05:56;;;;;;;;;26.67;23.00;28.30;57.70;;;;;;111718;1237;49702;-64
2023/07/06 10:08:31;;;;;;;;;25.25;22.00;28.30;57.90;;;;;;111442;1244;49292;-64
2023/07/06 10:11:09;;;;;;;;;21.25;19.75;28.30;57.50;;;;;;111679;1237;53523;-64
2023/07/06 10:13:53;;;;;;;;;20.67;20.00;28.30;57.70;;;;;;111560;1238;44500;-64
2023/07/06 10:16:23;;;;;;;;;20.25;19.25;28.30;57.70;;;;;;111749;1238;49435;-62
2023/07/06 10:19:03;;;;;;;;;21.00;19.75;28.30;57.80;;;;;;111708;1238;49780;-64
2023/07/06 10:22:08;;;;;;;;;24.75;22.75;28.30;57.80;;;;;;111622;1237;54946;-62
2023/07/06 10:25:19;;;;;;;;;25.00;21.50;28.30;57.80;;;;;;111242;1242;44582;-63
2023/07/06 10:27:52;;;;;;;;;21.25;18.75;28.30;57.80;;;;;;111415;1238;49503;-65
2023/07/06 10:30:24;;;;;;;;;21.00;19.00;28.30;57.80;;;;;;111735;1241;49004;-65
2023/07/06 10:32:53;;;;;;;;;22.25;19.75;28.30;57.70;;;;;;111322;1244;53336;-64
2023/07/06 10:35:29;;;;;;;;;23.00;19.25;28.30;57.70;;;;;;111679;1241;44718;-62
2023/07/06 10:37:57;;;;;;;;;22.25;20.00;28.30;57.80;;;;;;111537;1238;49214;-62
2023/07/06 10:40:26;;;;;;;;;21.00;19.50;28.30;57.80;;;;;;111707;1237;50379;-62
2023/07/06 10:43:13;;;;;;;;;22.75;21.00;28.30;57.90;;;;;;111726;1242;53568;-62
2023/07/06 10:45:42;;;;;;;;;22.33;22.00;28.30;57.40;;;;;;111691;1241;44489;-62
2023/07/06 10:48:15;;;;;;;;;21.50;19.00;28.30;58.00;;;;;;111656;1238;49312;-62
2023/07/06 10:50:49;;;;;;;;;20.25;18.50;28.20;57.90;;;;;;111677;1239;49140;-62
2023/07/06 10:53:18;;;;;;;;;19.67;18.33;28.20;57.80;;;;;;111693;1237;54253;-62
2023/07/06 10:56:03;;;;;;;;;22.00;21.00;28.20;57.90;;;;;;111688;1238;45700;-63
2023/07/06 10:58:35;;;;;;;;;22.25;20.00;28.20;57.90;;;;;;111688;1241;49036;-62
2023/07/06 11:01:12;;;;;;;;;23.00;21.00;28.20;57.90;;;;;;111408;1244;49317;-63
2023/07/06 11:03:43;;;;;;;;;22.50;21.25;28.20;58.00;;;;;;111690;1238;54679;-63
2023/07/06 11:06:14;;;;;;;;;21.00;19.25;28.20;58.00;;;;;;111684;1237;43996;-64
2023/07/06 11:09:08;;;;;;;;;21.50;20.00;28.20;58.10;;;;;;111730;1241;48996;-64
2023/07/06 11:11:42;;;;;;;;;20.50;20.00;28.20;58.30;;;;;;111550;1238;49490;-63
2023/07/06 11:14:20;;;;;;;;;20.00;19.00;28.20;58.70;;;;;;111690;1239;53906;-63
2023/07/06 11:16:55;;;;;;;;;18.67;16.67;28.20;59.20;;;;;;111394;1238;46094;-65
2023/07/06 11:19:33;;;;;;;;;21.00;20.00;28.20;58.60;;;;;;111506;1238;49850;-64
2023/07/06 11:22:05;;;;;;;;;20.25;18.50;28.30;58.90;;;;;;111708;1239;49109;-65
2023/07/06 11:24:42;;;;;;;;;21.67;19.00;28.20;58.60;;;;;;111724;1241;53265;-73
2023/07/06 11:27:24;;;;;;;;;20.75;19.50;28.30;58.90;;;;;;111823;1238;44225;-72
2023/07/06 11:29:54;;;;;;;;;21.00;20.67;28.30;58.60;;;;;;111643;1241;48801;-71
2023/07/06 11:32:33;;;;;;;;;20.00;18.00;28.30;58.70;;;;;;111837;1237;49873;-76
2023/07/06 11:35:00;;;;;;;;;20.00;17.67;28.30;58.40;;;;;;112103;1237;53304;-71
2023/07/06 11:37:30;;;;;;;;;21.00;20.00;28.40;58.50;;;;;;111650;1241;45049;-70
2023/07/06 11:40:19;;;;;;;;;22.50;18.00;28.40;58.60;;;;;;111800;1241;48866;-69
2023/07/06 11:43:04;;;;;;;;;20.75;19.75;28.40;58.40;;;;;;111816;1237;49756;-68
2023/07/06 11:45:53;;;;;;;;;23.00;22.00;28.50;58.20;;;;;;111920;1238;53805;-69
2023/07/06 11:48:24;;;;;;;;;19.00;18.67;28.50;58.10;;;;;;111783;1237;44349;-70
2023/07/06 11:50:53;;;;;;;;;19.00;18.50;28.60;58.20;;;;;;111648;1238;49878;-70
2023/07/06 11:56:32;;;;;;;;;20.00;18.50;28.60;57.90;;;;;;111879;1239;53799;-70
2023/07/06 11:59:04;;;;;;;;;21.75;20.00;28.60;58.00;;;;;;111823;1237;45065;-73
2023/07/06 12:01:46;;;;;;;;;21.00;20.00;28.60;57.60;;;;;;111647;1238;49881;-71
2023/07/06 12:04:20;;;;;;;;;20.25;19.50;28.60;57.80;;;;;;111742;1238;49138;-71
2023/07/06 12:06:50;;;;;;;;;22.00;19.00;28.60;58.10;;;;;;111851;1238;54121;-70
2023/07/06 12:09:19;;;;;;;;;20.50;19.75;28.60;58.30;;;;;;111690;1241;45030;-71
2023/07/06 12:12:03;;;;;;;;;18.75;18.25;28.50;58.30;;;;;;111766;1238;49039;-72
2023/07/06 12:14:32;;;;;;;;;19.00;18.00;28.50;58.20;;;;;;111722;1241;49875;-69
2023/07/06 12:16:59;;;;;;;;;20.00;19.00;28.50;58.20;;;;;;111719;1241;53276;-72
2023/07/06 12:19:28;;;;;;;;;23.75;20.25;28.60;58.80;;;;;;111566;1244;44567;-69
2023/07/06 12:21:56;;;;;;;;;20.33;18.67;28.60;58.10;;;;;;111678;1237;49872;-69
2023/07/06 12:24:26;;;;;;;;;21.00;20.00;28.70;58.30;;;;;;111732;1241;48828;-69
2023/07/06 12:26:57;;;;;;;;;18.75;18.50;28.70;58.20;;;;;;111729;1241;54061;-72
2023/07/06 12:29:27;;;;;;;;;19.33;18.00;28.70;58.20;;;;;;111561;1238;44275;-73
2023/07/06 12:31:59;;;;;;;;;23.33;20.00;28.70;58.30;;;;;;111814;1238;50273;-73
2023/07/06 12:34:30;;;;;;;;;18.00;17.50;28.70;60.00;;;;;;111647;1242;49157;-70
2023/07/06 12:37:00;;;;;;;;;22.00;19.00;28.80;58.40;;;;;;111212;1241;54000;-70
2023/07/06 12:39:28;;;;;;;;;19.00;17.00;28.80;58.00;;;;;;111816;1238;45363;-71
2023/07/06 12:41:55;;;;;;;;;20.67;18.00;28.80;57.90;;;;;;111825;1241;49727;-70